createdAt,value
2019-05-11T00:03:20.528Z,9.23
2019-05-11T00:08:25.767Z,9.47
2019-05-11T00:13:31.352Z,9.70
2019-05-11T00:18:36.739Z,9.53
2019-05-11T00:23:41.955Z,9.43
2019-05-11T00:28:47.099Z,9.31
2019-05-11T00:33:52.494Z,9.38
2019-05-11T00:38:58.222Z,9.36
2019-05-11T00:44:03.627Z,9.31
2019-05-11T00:49:08.795Z,9.18
2019-05-11T00:54:14.131Z,9.19
2019-05-11T00:59:22.267Z,9.00
2019-05-11T01:04:27.625Z,8.82
2019-05-11T01:09:33.275Z,9.15
2019-05-11T01:14:39.767Z,8.87
2019-05-11T01:19:44.999Z,9.06
2019-05-11T01:24:50.247Z,8.80
2019-05-11T01:29:55.550Z,8.79
2019-05-11T01:35:00.897Z,8.94
2019-05-11T01:40:06.543Z,8.65
2019-05-11T01:45:11.867Z,9.04
2019-05-11T01:50:17.374Z,8.97
2019-05-11T01:55:23.786Z,9.25
2019-05-11T02:00:30.171Z,9.27
2019-05-11T02:05:35.458Z,9.21
2019-05-11T02:10:40.674Z,9.10
2019-05-11T02:15:46.200Z,8.97
2019-05-11T02:20:51.438Z,8.55
2019-05-11T02:25:56.689Z,8.62
2019-05-11T02:31:01.946Z,8.67
2019-05-11T02:36:08.412Z,8.66
2019-05-11T02:41:13.693Z,8.57
2019-05-11T02:46:19.872Z,8.78
2019-05-11T02:51:25.233Z,8.44
2019-05-11T02:56:30.446Z,8.51
2019-05-11T03:01:35.693Z,8.74
2019-05-11T03:06:41.123Z,8.76
2019-05-11T03:11:55.408Z,8.74
2019-05-11T03:17:11.960Z,8.51
2019-05-11T03:22:17.297Z,8.43
2019-05-11T03:27:22.516Z,8.46
2019-05-11T03:32:28.231Z,8.81
2019-05-11T03:37:33.591Z,8.93
2019-05-11T03:42:38.777Z,8.41
2019-05-11T03:47:44.025Z,8.26
2019-05-11T03:52:49.267Z,8.09
2019-05-11T03:57:54.531Z,8.06
2019-05-11T04:03:00.140Z,8.03
2019-05-11T04:08:05.497Z,8.02
2019-05-11T04:13:10.699Z,7.96
2019-05-11T04:18:16.599Z,8.23
2019-05-11T04:23:21.866Z,8.25
2019-05-11T04:28:28.415Z,8.19
2019-05-11T04:33:33.678Z,8.38
2019-05-11T04:38:38.923Z,8.77
2019-05-11T04:43:46.302Z,8.89
2019-05-11T04:48:51.742Z,8.49
2019-05-11T04:53:57.530Z,8.87
2019-05-11T04:59:03.048Z,10.19
2019-05-11T05:04:13.844Z,12.31
2019-05-11T05:09:15.605Z,13.02
2019-05-11T05:14:21.023Z,11.77
2019-05-11T05:19:26.893Z,10.36
2019-05-11T05:24:32.092Z,10.89
2019-05-11T05:29:37.350Z,10.72
2019-05-11T05:34:42.675Z,11.18
2019-05-11T05:39:49.709Z,11.04
2019-05-11T05:44:55.133Z,12.00
2019-05-11T05:50:00.410Z,12.59
2019-05-11T05:55:05.606Z,11.97
2019-05-11T06:00:13.990Z,11.31
2019-05-11T06:05:19.238Z,11.74
2019-05-11T06:10:24.901Z,11.69
2019-05-11T06:15:30.055Z,12.31
2019-05-11T06:20:35.765Z,11.90
2019-05-11T06:25:41.090Z,11.94
2019-05-11T06:30:46.454Z,11.90
2019-05-11T06:35:52.286Z,12.20
2019-05-11T06:40:57.849Z,12.18
2019-05-11T06:46:03.252Z,12.41
2019-05-11T06:51:08.671Z,13.06
2019-05-11T06:56:14.715Z,13.04
2019-05-11T07:01:20.077Z,13.15
2019-05-11T07:06:30.112Z,13.06
2019-05-11T07:11:34.151Z,13.14
2019-05-11T07:16:40.807Z,13.45
2019-05-11T07:21:48.467Z,13.46
2019-05-11T07:26:56.783Z,13.44
2019-05-11T07:32:09.898Z,13.57
2019-05-11T07:37:24.513Z,13.61
2019-05-11T07:42:30.523Z,13.45
2019-05-11T07:47:37.911Z,13.61
2019-05-11T07:52:42.848Z,13.82
2019-05-11T07:57:50.442Z,13.60
2019-05-11T08:02:58.691Z,13.49
2019-05-11T08:08:04.487Z,13.40
2019-05-11T08:13:11.322Z,13.40
2019-05-11T08:18:18.757Z,13.59
2019-05-11T08:23:25.222Z,13.49
2019-05-11T08:28:30.654Z,13.45
2019-05-11T08:33:35.943Z,13.68
2019-05-11T08:38:42.272Z,13.37
2019-05-11T08:43:49.169Z,13.25
2019-05-11T08:48:55.215Z,13.03
2019-05-11T08:54:01.753Z,12.99
2019-05-11T08:59:08.303Z,13.08
2019-05-11T09:04:13.627Z,12.76
2019-05-11T09:09:19.429Z,12.42
2019-05-11T09:14:24.757Z,12.25
2019-05-11T09:19:30.334Z,12.45
2019-05-11T09:24:39.246Z,12.36
2019-05-11T09:29:44.686Z,12.36
2019-05-11T09:34:49.898Z,12.26
2019-05-11T09:39:55.628Z,12.03
2019-05-11T09:45:00.999Z,11.88
2019-05-11T09:50:08.596Z,12.04
2019-05-11T09:55:13.864Z,11.97
2019-05-11T10:00:20.215Z,12.09
2019-05-11T10:05:25.606Z,12.42
2019-05-11T10:10:31.934Z,12.19
2019-05-11T10:15:38.563Z,12.28
2019-05-11T10:20:45.489Z,12.18
2019-05-11T10:25:53.530Z,12.16
2019-05-11T10:30:58.859Z,12.09
2019-05-11T10:36:04.318Z,12.03
2019-05-11T10:41:09.682Z,11.81
2019-05-11T10:46:20.216Z,11.81
2019-05-11T10:51:21.877Z,11.74
2019-05-11T10:56:28.405Z,11.78
2019-05-11T11:01:33.907Z,11.95
2019-05-11T11:06:39.121Z,12.09
2019-05-11T11:11:44.496Z,12.45
2019-05-11T11:16:49.984Z,12.35
2019-05-11T11:21:55.205Z,12.47
2019-05-11T11:27:00.920Z,12.32
2019-05-11T11:32:08.032Z,12.44
2019-05-11T11:37:13.474Z,12.73
2019-05-11T11:42:19.791Z,12.66
2019-05-11T11:47:25.064Z,12.68
2019-05-11T11:52:30.283Z,12.85
2019-05-11T11:57:38.050Z,12.71
2019-05-11T12:02:43.574Z,12.80
2019-05-11T12:07:49.236Z,12.56
2019-05-11T12:12:54.574Z,12.49
2019-05-11T12:18:00.380Z,12.43
2019-05-11T12:23:05.538Z,12.47
2019-05-11T12:28:11.019Z,12.42
2019-05-11T12:33:18.527Z,12.28
2019-05-11T12:38:23.214Z,12.28
2019-05-11T12:43:28.495Z,12.28
2019-05-11T12:48:33.755Z,12.28
2019-05-11T12:53:39.020Z,12.28
2019-05-11T12:58:44.334Z,12.08
2019-05-11T13:03:50.121Z,12.10
2019-05-11T13:08:58.591Z,12.21
2019-05-11T13:14:03.438Z,12.20
2019-05-11T13:19:08.854Z,11.99
2019-05-11T13:24:14.277Z,11.90
2019-05-11T13:29:20.017Z,11.77
2019-05-11T13:34:29.190Z,11.89
2019-05-11T13:39:37.921Z,11.80
2019-05-11T13:44:43.314Z,11.81
2019-05-11T13:49:48.873Z,11.72
2019-05-11T13:54:54.327Z,11.69
2019-05-11T14:00:00.043Z,11.67
2019-05-11T14:05:05.709Z,11.46
2019-05-11T14:10:11.171Z,11.55
2019-05-11T14:15:18.804Z,11.68
2019-05-11T14:20:23.623Z,11.71
2019-05-11T14:25:29.176Z,11.75
2019-05-11T14:30:35.253Z,11.70
2019-05-11T14:35:41.912Z,11.67
2019-05-11T14:40:48.070Z,11.87
2019-05-11T14:45:53.276Z,11.91
2019-05-11T14:50:59.268Z,12.08
2019-05-11T14:56:05.059Z,12.15
2019-05-11T15:01:10.334Z,12.08
2019-05-11T15:06:18.839Z,12.06
2019-05-11T15:11:24.939Z,12.17
2019-05-11T15:16:30.827Z,12.47
2019-05-11T15:21:38.836Z,12.33
2019-05-11T15:26:44.110Z,12.44
2019-05-11T15:31:52.029Z,12.45
2019-05-11T15:36:58.301Z,12.28
2019-05-11T15:42:10.409Z,12.11
2019-05-11T15:47:11.068Z,12.01
2019-05-11T15:52:18.874Z,12.00
2019-05-11T15:57:24.439Z,11.88
2019-05-11T16:02:30.294Z,11.84
2019-05-11T16:07:38.257Z,11.93
2019-05-11T16:12:44.794Z,11.94
2019-05-11T16:17:50.735Z,12.15
2019-05-11T16:22:56.145Z,11.94
2019-05-11T16:28:02.645Z,11.96
2019-05-11T16:33:08.833Z,11.91
2019-05-11T16:38:14.183Z,11.82
2019-05-11T16:43:19.610Z,11.77
2019-05-11T16:48:24.797Z,11.73
2019-05-11T16:53:32.310Z,11.78
2019-05-11T16:58:40.807Z,11.81
2019-05-11T17:03:44.544Z,11.79
2019-05-11T17:08:49.783Z,11.76
2019-05-11T17:13:55.076Z,11.79
2019-05-11T17:19:01.569Z,11.78
2019-05-11T17:24:06.823Z,11.77
2019-05-11T17:29:11.989Z,11.84
2019-05-11T17:34:20.562Z,11.84
2019-05-11T17:39:25.296Z,11.80
2019-05-11T17:44:30.552Z,12.04
2019-05-11T17:49:38.408Z,11.81
2019-05-11T17:54:42.965Z,11.99
2019-05-11T17:59:48.138Z,11.81
2019-05-11T18:04:53.811Z,11.80
2019-05-11T18:09:58.961Z,11.54
2019-05-11T18:15:07.977Z,11.34
2019-05-11T18:20:17.756Z,11.52
2019-05-11T18:25:20.667Z,11.48
2019-05-11T18:30:25.851Z,11.35
2019-05-11T18:35:31.183Z,10.96
2019-05-11T18:40:38.180Z,10.84
2019-05-11T18:45:43.946Z,10.74
2019-05-11T18:50:49.280Z,10.64
2019-05-11T18:55:58.787Z,10.62
2019-05-11T19:01:04.135Z,10.61
2019-05-11T19:06:09.601Z,10.66
2019-05-11T19:11:14.979Z,11.01
2019-05-11T19:16:20.204Z,10.89
2019-05-11T19:21:25.460Z,10.68
2019-05-11T19:26:31.101Z,10.52
2019-05-11T19:31:38.447Z,10.72
2019-05-11T19:36:44.619Z,10.33
2019-05-11T19:41:49.772Z,10.48
2019-05-11T19:46:55.105Z,10.24
2019-05-11T19:52:00.290Z,10.41
2019-05-11T19:57:05.604Z,10.21
2019-05-11T20:02:10.838Z,10.14
2019-05-11T20:07:18.319Z,10.22
2019-05-11T20:12:25.466Z,10.26
2019-05-11T20:17:30.754Z,10.14
2019-05-11T20:22:36.117Z,10.05
2019-05-11T20:27:43.531Z,10.09
2019-05-11T20:32:49.326Z,10.16
2019-05-11T20:37:55.185Z,10.17
2019-05-11T20:43:00.370Z,10.25
2019-05-11T20:48:07.899Z,10.14
2019-05-11T20:53:13.610Z,10.09
2019-05-11T20:58:20.652Z,10.14
2019-05-11T21:03:27.666Z,10.20
2019-05-11T21:08:33.035Z,10.51
2019-05-11T21:13:39.321Z,10.34
2019-05-11T21:18:45.463Z,10.19
2019-05-11T21:23:50.919Z,10.02
2019-05-11T21:28:57.921Z,10.06
2019-05-11T21:34:03.011Z,9.93
2019-05-11T21:39:09.550Z,9.96
2019-05-11T21:44:14.746Z,10.17
2019-05-11T21:49:21.430Z,10.05
2019-05-11T21:54:29.958Z,9.95
2019-05-11T21:59:33.804Z,9.90
2019-05-11T22:04:39.716Z,10.04
2019-05-11T22:09:45.238Z,9.96
2019-05-11T22:14:51.637Z,9.94
2019-05-11T22:19:58.532Z,10.08
2019-05-11T22:25:04.020Z,9.99
2019-05-11T22:30:10.306Z,9.99
2019-05-11T22:35:18.531Z,9.99
2019-05-11T22:40:24.167Z,9.73
2019-05-11T22:45:29.381Z,9.70
2019-05-11T22:50:34.666Z,9.67
2019-05-11T22:55:40.901Z,9.50
2019-05-11T23:00:47.510Z,9.23
2019-05-11T23:05:52.842Z,9.24
2019-05-11T23:10:58.328Z,9.37
2019-05-11T23:16:03.632Z,8.84
2019-05-11T23:21:08.853Z,8.36
2019-05-11T23:26:14.176Z,8.31
2019-05-11T23:31:21.773Z,7.80
2019-05-11T23:36:28.032Z,7.80
2019-05-11T23:41:33.845Z,7.60
2019-05-11T23:46:39.019Z,7.23
2019-05-11T23:51:44.730Z,6.92
2019-05-11T23:56:52.430Z,7.00
